sensor_id;sensor_type;location;lat;lon;timestamp;pressure;altitude;pressure_sealevel;temperature;humidity
19797;BME280;10058;57.654;12.044;2024-01-27T00:02:12;101009.38;;;8.48;100.00
19797;BME280;10058;57.654;12.044;2024-01-27T00:04:37;101005.06;;;8.29;100.00
19797;BME280;10058;57.654;12.044;2024-01-27T00:07:02;101008.75;;;8.55;100.00
19797;BME280;10058;57.654;12.044;2024-01-27T00:09:28;101016.09;;;8.62;100.00
19797;BME280;10058;57.654;12.044;2024-01-27T00:11:53;101020.53;;;8.63;100.00
19797;BME280;10058;57.654;12.044;2024-01-27T00:14:18;101021.34;;;8.62;100.00
19797;BME280;10058;57.654;12.044;2024-01-27T00:16:43;101025.75;;;8.41;100.00
19797;BME280;10058;57.654;12.044;2024-01-27T00:19:08;101039.50;;;8.33;100.00
19797;BME280;10058;57.654;12.044;2024-01-27T00:21:33;101051.56;;;8.28;100.00
19797;BME280;10058;57.654;12.044;2024-01-27T00:23:59;101053.50;;;8.32;100.00
19797;BME280;10058;57.654;12.044;2024-01-27T00:26:28;101054.31;;;8.52;100.00
19797;BME280;10058;57.654;12.044;2024-01-27T00:28:53;101065.97;;;8.36;100.00
19797;BME280;10058;57.654;12.044;2024-01-27T00:31:18;101069.97;;;8.48;100.00
19797;BME280;10058;57.654;12.044;2024-01-27T00:33:44;101070.00;;;8.49;100.00
19797;BME280;10058;57.654;12.044;2024-01-27T00:36:09;101075.78;;;8.61;100.00
19797;BME280;10058;57.654;12.044;2024-01-27T00:38:34;101074.63;;;8.55;100.00
19797;BME280;10058;57.654;12.044;2024-01-27T00:40:59;101082.88;;;8.42;100.00
19797;BME280;10058;57.654;12.044;2024-01-27T00:43:24;101078.88;;;8.30;100.00
19797;BME280;10058;57.654;12.044;2024-01-27T00:45:50;101088.97;;;8.41;100.00
19797;BME280;10058;57.654;12.044;2024-01-27T00:48:15;101104.91;;;8.44;100.00
19797;BME280;10058;57.654;12.044;2024-01-27T00:50:40;101102.19;;;8.21;100.00
19797;BME280;10058;57.654;12.044;2024-01-27T00:53:06;101115.69;;;8.50;100.00
19797;BME280;10058;57.654;12.044;2024-01-27T00:55:31;101119.06;;;8.46;100.00
19797;BME280;10058;57.654;12.044;2024-01-27T00:57:56;101121.31;;;8.17;100.00
19797;BME280;10058;57.654;12.044;2024-01-27T01:00:21;101127.91;;;8.48;100.00
19797;BME280;10058;57.654;12.044;2024-01-27T01:02:46;101129.63;;;8.68;100.00
19797;BME280;10058;57.654;12.044;2024-01-27T01:05:12;101137.03;;;8.56;100.00
19797;BME280;10058;57.654;12.044;2024-01-27T01:07:37;101148.13;;;8.28;100.00
19797;BME280;10058;57.654;12.044;2024-01-27T01:10:03;101140.88;;;8.03;100.00
19797;BME280;10058;57.654;12.044;2024-01-27T01:12:29;101155.53;;;8.36;100.00
19797;BME280;10058;57.654;12.044;2024-01-27T01:14:54;101154.47;;;8.12;100.00
19797;BME280;10058;57.654;12.044;2024-01-27T01:17:19;101168.97;;;8.63;100.00
19797;BME280;10058;57.654;12.044;2024-01-27T01:19:44;101180.34;;;8.42;100.00
19797;BME280;10058;57.654;12.044;2024-01-27T01:22:10;101170.66;;;8.02;100.00
19797;BME280;10058;57.654;12.044;2024-01-27T01:24:35;101191.97;;;8.27;100.00
19797;BME280;10058;57.654;12.044;2024-01-27T01:27:00;101189.34;;;8.47;100.00
19797;BME280;10058;57.654;12.044;2024-01-27T01:29:25;101195.88;;;8.35;100.00
19797;BME280;10058;57.654;12.044;2024-01-27T01:31:51;101193.44;;;8.61;100.00
19797;BME280;10058;57.654;12.044;2024-01-27T01:34:16;101199.03;;;8.68;100.00
19797;BME280;10058;57.654;12.044;2024-01-27T01:36:41;101205.84;;;8.23;100.00
19797;BME280;10058;57.654;12.044;2024-01-27T01:39:07;101199.78;;;8.66;100.00
19797;BME280;10058;57.654;12.044;2024-01-27T01:41:32;101214.56;;;8.22;100.00
19797;BME280;10058;57.654;12.044;2024-01-27T01:43:57;101221.88;;;8.49;100.00
19797;BME280;10058;57.654;12.044;2024-01-27T01:46:23;101219.56;;;8.35;100.00
19797;BME280;10058;57.654;12.044;2024-01-27T01:48:51;101204.41;;;8.31;100.00
19797;BME280;10058;57.654;12.044;2024-01-27T01:51:16;101239.25;;;8.05;100.00
19797;BME280;10058;57.654;12.044;2024-01-27T01:53:42;101251.72;;;8.28;100.00
19797;BME280;10058;57.654;12.044;2024-01-27T01:56:07;101256.38;;;8.34;100.00
19797;BME280;10058;57.654;12.044;2024-01-27T01:58:33;101246.13;;;8.40;100.00
19797;BME280;10058;57.654;12.044;2024-01-27T02:00:59;101252.84;;;8.33;100.00
19797;BME280;10058;57.654;12.044;2024-01-27T02:03:25;101239.25;;;8.24;100.00
19797;BME280;10058;57.654;12.044;2024-01-27T02:05:50;101240.47;;;8.52;100.00
19797;BME280;10058;57.654;12.044;2024-01-27T02:08:15;101242.41;;;8.56;100.00
19797;BME280;10058;57.654;12.044;2024-01-27T02:10:40;101248.97;;;8.45;100.00
19797;BME280;10058;57.654;12.044;2024-01-27T02:15:46;101253.25;;;8.04;100.00
19797;BME280;10058;57.654;12.044;2024-01-27T02:18:12;101263.50;;;8.17;100.00
19797;BME280;10058;57.654;12.044;2024-01-27T02:20:37;101260.16;;;8.21;100.00
19797;BME280;10058;57.654;12.044;2024-01-27T02:23:03;101265.16;;;8.15;100.00
19797;BME280;10058;57.654;12.044;2024-01-27T02:25:30;101269.31;;;7.91;100.00
19797;BME280;10058;57.654;12.044;2024-01-27T02:27:55;101268.34;;;8.27;100.00
19797;BME280;10058;57.654;12.044;2024-01-27T02:30:20;101266.94;;;8.16;100.00
19797;BME280;10058;57.654;12.044;2024-01-27T02:32:45;101270.84;;;8.24;100.00
19797;BME280;10058;57.654;12.044;2024-01-27T02:35:10;101277.78;;;8.22;100.00
19797;BME280;10058;57.654;12.044;2024-01-27T02:37:36;101284.41;;;8.14;100.00
19797;BME280;10058;57.654;12.044;2024-01-27T02:40:01;101287.63;;;8.26;100.00
19797;BME280;10058;57.654;12.044;2024-01-27T02:42:26;101299.56;;;8.37;100.00
19797;BME280;10058;57.654;12.044;2024-01-27T02:44:51;101300.66;;;8.23;100.00
19797;BME280;10058;57.654;12.044;2024-01-27T02:47:16;101301.00;;;8.50;100.00
19797;BME280;10058;57.654;12.044;2024-01-27T02:49:42;101310.28;;;8.61;100.00
19797;BME280;10058;57.654;12.044;2024-01-27T02:52:07;101312.41;;;8.31;100.00
19797;BME280;10058;57.654;12.044;2024-01-27T02:54:32;101309.78;;;8.31;100.00
19797;BME280;10058;57.654;12.044;2024-01-27T02:56:57;101320.09;;;8.08;100.00
19797;BME280;10058;57.654;12.044;2024-01-27T02:59:22;101322.75;;;8.27;100.00
19797;BME280;10058;57.654;12.044;2024-01-27T03:01:47;101331.56;;;8.27;100.00
19797;BME280;10058;57.654;12.044;2024-01-27T03:04:13;101324.06;;;8.17;100.00
19797;BME280;10058;57.654;12.044;2024-01-27T03:06:38;101330.28;;;8.19;100.00
19797;BME280;10058;57.654;12.044;2024-01-27T03:09:03;101335.00;;;8.07;100.00
19797;BME280;10058;57.654;12.044;2024-01-27T03:11:28;101338.88;;;8.15;100.00
19797;BME280;10058;57.654;12.044;2024-01-27T03:13:54;101340.69;;;8.16;100.00
19797;BME280;10058;57.654;12.044;2024-01-27T03:16:19;101337.75;;;7.91;100.00
19797;BME280;10058;57.654;12.044;2024-01-27T03:18:44;101339.56;;;7.92;100.00
19797;BME280;10058;57.654;12.044;2024-01-27T03:21:10;101338.88;;;7.96;100.00
19797;BME280;10058;57.654;12.044;2024-01-27T03:23:35;101344.81;;;7.92;100.00
19797;BME280;10058;57.654;12.044;2024-01-27T03:26:01;101347.81;;;8.19;100.00
19797;BME280;10058;57.654;12.044;2024-01-27T03:28:26;101347.81;;;7.82;100.00
19797;BME280;10058;57.654;12.044;2024-01-27T03:30:52;101347.91;;;8.20;100.00
19797;BME280;10058;57.654;12.044;2024-01-27T03:33:17;101364.72;;;8.42;100.00
19797;BME280;10058;57.654;12.044;2024-01-27T03:35:42;101369.25;;;8.44;100.00
19797;BME280;10058;57.654;12.044;2024-01-27T03:38:07;101371.22;;;8.30;100.00
19797;BME280;10058;57.654;12.044;2024-01-27T03:40:32;101372.88;;;8.28;100.00
19797;BME280;10058;57.654;12.044;2024-01-27T03:42:58;101375.13;;;8.38;100.00
19797;BME280;10058;57.654;12.044;2024-01-27T03:45:23;101388.00;;;8.52;100.00
19797;BME280;10058;57.654;12.044;2024-01-27T03:47:48;101388.78;;;8.31;100.00
19797;BME280;10058;57.654;12.044;2024-01-27T03:50:13;101388.84;;;8.51;100.00
19797;BME280;10058;57.654;12.044;2024-01-27T03:52:38;101393.25;;;8.15;100.00
19797;BME280;10058;57.654;12.044;2024-01-27T03:55:04;101389.97;;;8.56;100.00
19797;BME280;10058;57.654;12.044;2024-01-27T03:57:30;101397.09;;;8.39;100.00
19797;BME280;10058;57.654;12.044;2024-01-27T03:59:55;101393.34;;;8.34;100.00
19797;BME280;10058;57.654;12.044;2024-01-27T04:02:20;101397.59;;;8.13;100.00
19797;BME280;10058;57.654;12.044;2024-01-27T04:04:46;101396.97;;;8.18;100.00
19797;BME280;10058;57.654;12.044;2024-01-27T04:07:11;101407.63;;;8.21;100.00
19797;BME280;10058;57.654;12.044;2024-01-27T04:09:36;101416.81;;;8.29;100.00
19797;BME280;10058;57.654;12.044;2024-01-27T04:12:01;101416.50;;;8.23;100.00
19797;BME280;10058;57.654;12.044;2024-01-27T04:14:26;101406.88;;;8.42;100.00
19797;BME280;10058;57.654;12.044;2024-01-27T04:16:52;101419.06;;;8.40;100.00
19797;BME280;10058;57.654;12.044;2024-01-27T04:19:17;101421.25;;;8.30;100.00
19797;BME280;10058;57.654;12.044;2024-01-27T04:21:42;101422.63;;;8.59;100.00
19797;BME280;10058;57.654;12.044;2024-01-27T04:24:07;101417.97;;;8.54;100.00
19797;BME280;10058;57.654;12.044;2024-01-27T04:26:33;101424.50;;;8.62;100.00
19797;BME280;10058;57.654;12.044;2024-01-27T04:28:58;101425.19;;;8.58;100.00
19797;BME280;10058;57.654;12.044;2024-01-27T04:31:23;101431.44;;;8.79;100.00
19797;BME280;10058;57.654;12.044;2024-01-27T04:33:48;101420.66;;;8.18;100.00
19797;BME280;10058;57.654;12.044;2024-01-27T04:36:14;101432.66;;;8.49;100.00
19797;BME280;10058;57.654;12.044;2024-01-27T04:38:39;101435.03;;;8.62;100.00
19797;BME280;10058;57.654;12.044;2024-01-27T04:41:04;101432.94;;;8.55;100.00
19797;BME280;10058;57.654;12.044;2024-01-27T04:43:29;101436.53;;;8.37;100.00
19797;BME280;10058;57.654;12.044;2024-01-27T04:45:54;101442.81;;;8.59;100.00
19797;BME280;10058;57.654;12.044;2024-01-27T04:48:20;101445.72;;;8.28;100.00
19797;BME280;10058;57.654;12.044;2024-01-27T04:50:45;101443.25;;;8.50;100.00
19797;BME280;10058;57.654;12.044;2024-01-27T04:53:11;101446.81;;;8.51;100.00
19797;BME280;10058;57.654;12.044;2024-01-27T04:55:36;101442.25;;;8.29;100.00
19797;BME280;10058;57.654;12.044;2024-01-27T04:58:01;101458.81;;;8.26;100.00
19797;BME280;10058;57.654;12.044;2024-01-27T05:00:27;101451.56;;;8.22;100.00
19797;BME280;10058;57.654;12.044;2024-01-27T05:02:53;101457.16;;;8.28;100.00
19797;BME280;10058;57.654;12.044;2024-01-27T05:05:18;101464.84;;;8.06;100.00
19797;BME280;10058;57.654;12.044;2024-01-27T05:07:43;101473.78;;;8.27;100.00
19797;BME280;10058;57.654;12.044;2024-01-27T05:10:12;101472.78;;;8.25;100.00
19797;BME280;10058;57.654;12.044;2024-01-27T05:12:37;101468.72;;;8.69;100.00
19797;BME280;10058;57.654;12.044;2024-01-27T05:15:03;101474.38;;;8.40;100.00
19797;BME280;10058;57.654;12.044;2024-01-27T05:17:28;101486.22;;;8.48;100.00
19797;BME280;10058;57.654;12.044;2024-01-27T05:19:53;101470.97;;;8.79;100.00
19797;BME280;10058;57.654;12.044;2024-01-27T05:22:18;101479.44;;;8.35;100.00
19797;BME280;10058;57.654;12.044;2024-01-27T05:24:43;101479.41;;;8.53;100.00
19797;BME280;10058;57.654;12.044;2024-01-27T05:27:09;101488.53;;;8.42;100.00
19797;BME280;10058;57.654;12.044;2024-01-27T05:29:34;101488.72;;;8.64;100.00
19797;BME280;10058;57.654;12.044;2024-01-27T05:32:01;101495.38;;;8.38;100.00
19797;BME280;10058;57.654;12.044;2024-01-27T05:34:27;101495.06;;;8.14;100.00
19797;BME280;10058;57.654;12.044;2024-01-27T05:36:52;101501.69;;;8.59;100.00
19797;BME280;10058;57.654;12.044;2024-01-27T05:39:17;101497.94;;;8.36;100.00
19797;BME280;10058;57.654;12.044;2024-01-27T05:41:43;101506.00;;;8.77;100.00
19797;BME280;10058;57.654;12.044;2024-01-27T05:44:08;101507.97;;;8.81;100.00
19797;BME280;10058;57.654;12.044;2024-01-27T05:46:34;101520.91;;;8.76;100.00
19797;BME280;10058;57.654;12.044;2024-01-27T05:48:59;101516.75;;;8.62;100.00
19797;BME280;10058;57.654;12.044;2024-01-27T05:51:28;101525.16;;;8.55;100.00
19797;BME280;10058;57.654;12.044;2024-01-27T05:53:53;101534.22;;;8.42;100.00
19797;BME280;10058;57.654;12.044;2024-01-27T05:56:18;101529.03;;;8.44;100.00
19797;BME280;10058;57.654;12.044;2024-01-27T05:58:47;101536.78;;;8.41;100.00
19797;BME280;10058;57.654;12.044;2024-01-27T06:01:12;101541.00;;;8.37;100.00
19797;BME280;10058;57.654;12.044;2024-01-27T06:03:37;101539.16;;;8.54;100.00
19797;BME280;10058;57.654;12.044;2024-01-27T06:06:02;101544.91;;;8.63;100.00
19797;BME280;10058;57.654;12.044;2024-01-27T06:08:28;101544.44;;;8.54;100.00
19797;BME280;10058;57.654;12.044;2024-01-27T06:10:53;101554.06;;;8.53;100.00
19797;BME280;10058;57.654;12.044;2024-01-27T06:13:19;101552.41;;;8.55;100.00
19797;BME280;10058;57.654;12.044;2024-01-27T06:15:44;101553.66;;;8.44;100.00
19797;BME280;10058;57.654;12.044;2024-01-27T06:18:09;101559.13;;;8.49;100.00
19797;BME280;10058;57.654;12.044;2024-01-27T06:20:34;101558.00;;;8.44;100.00
19797;BME280;10058;57.654;12.044;2024-01-27T06:22:59;101562.84;;;8.00;100.00
19797;BME280;10058;57.654;12.044;2024-01-27T06:25:24;101553.63;;;8.26;100.00
19797;BME280;10058;57.654;12.044;2024-01-27T06:27:50;101560.25;;;8.36;100.00
19797;BME280;10058;57.654;12.044;2024-01-27T06:30:15;101549.44;;;8.31;100.00
19797;BME280;10058;57.654;12.044;2024-01-27T06:32:41;101560.34;;;8.37;100.00
19797;BME280;10058;57.654;12.044;2024-01-27T06:35:06;101563.31;;;8.27;100.00
19797;BME280;10058;57.654;12.044;2024-01-27T06:37:32;101573.59;;;8.39;100.00
19797;BME280;10058;57.654;12.044;2024-01-27T06:39:57;101571.53;;;8.51;100.00
19797;BME280;10058;57.654;12.044;2024-01-27T06:42:22;101572.44;;;8.52;100.00
19797;BME280;10058;57.654;12.044;2024-01-27T06:44:47;101577.97;;;8.04;100.00
19797;BME280;10058;57.654;12.044;2024-01-27T06:47:13;101571.09;;;8.42;100.00
19797;BME280;10058;57.654;12.044;2024-01-27T06:49:39;101576.28;;;8.41;100.00
19797;BME280;10058;57.654;12.044;2024-01-27T06:52:04;101582.81;;;8.49;100.00
19797;BME280;10058;57.654;12.044;2024-01-27T06:54:30;101582.50;;;8.25;100.00
19797;BME280;10058;57.654;12.044;2024-01-27T06:56:55;101584.03;;;8.37;100.00
19797;BME280;10058;57.654;12.044;2024-01-27T06:59:20;101586.22;;;8.28;100.00
19797;BME280;10058;57.654;12.044;2024-01-27T07:01:46;101582.81;;;8.49;100.00
19797;BME280;10058;57.654;12.044;2024-01-27T07:04:13;101587.13;;;8.64;100.00
19797;BME280;10058;57.654;12.044;2024-01-27T07:06:38;101592.91;;;8.75;100.00
19797;BME280;10058;57.654;12.044;2024-01-27T07:09:03;101589.13;;;8.70;100.00
19797;BME280;10058;57.654;12.044;2024-01-27T07:11:28;101599.25;;;8.61;100.00
19797;BME280;10058;57.654;12.044;2024-01-27T07:13:53;101596.97;;;8.68;100.00
19797;BME280;10058;57.654;12.044;2024-01-27T07:16:19;101600.22;;;8.63;100.00
19797;BME280;10058;57.654;12.044;2024-01-27T07:18:45;101605.09;;;8.73;100.00
19797;BME280;10058;57.654;12.044;2024-01-27T07:21:14;101609.78;;;8.61;100.00
19797;BME280;10058;57.654;12.044;2024-01-27T07:23:39;101618.22;;;8.71;100.00
19797;BME280;10058;57.654;12.044;2024-01-27T07:26:04;101622.63;;;8.90;100.00
19797;BME280;10058;57.654;12.044;2024-01-27T07:28:29;101623.16;;;8.83;100.00
19797;BME280;10058;57.654;12.044;2024-01-27T07:30:55;101624.88;;;9.00;100.00
19797;BME280;10058;57.654;12.044;2024-01-27T07:33:20;101628.75;;;8.89;100.00
19797;BME280;10058;57.654;12.044;2024-01-27T07:35:45;101633.69;;;8.83;100.00
19797;BME280;10058;57.654;12.044;2024-01-27T07:38:10;101627.38;;;8.97;100.00
19797;BME280;10058;57.654;12.044;2024-01-27T07:40:35;101633.69;;;8.83;100.00
19797;BME280;10058;57.654;12.044;2024-01-27T07:43:01;101634.78;;;8.69;100.00
19797;BME280;10058;57.654;12.044;2024-01-27T07:45:26;101635.75;;;8.71;100.00
19797;BME280;10058;57.654;12.044;2024-01-27T07:47:51;101634.50;;;8.81;100.00
19797;BME280;10058;57.654;12.044;2024-01-27T07:50:16;101637.19;;;8.82;100.00
19797;BME280;10058;57.654;12.044;2024-01-27T07:52:42;101638.31;;;8.87;100.00
19797;BME280;10058;57.654;12.044;2024-01-27T07:55:07;101646.66;;;8.96;100.00
19797;BME280;10058;57.654;12.044;2024-01-27T07:57:32;101648.66;;;8.83;100.00
19797;BME280;10058;57.654;12.044;2024-01-27T07:59:58;101654.84;;;9.02;100.00
19797;BME280;10058;57.654;12.044;2024-01-27T08:02:23;101657.50;;;9.02;100.00
19797;BME280;10058;57.654;12.044;2024-01-27T08:04:48;101655.31;;;9.12;100.00
19797;BME280;10058;57.654;12.044;2024-01-27T08:07:13;101656.19;;;9.30;100.00
19797;BME280;10058;57.654;12.044;2024-01-27T08:09:41;101662.84;;;9.41;100.00
19797;BME280;10058;57.654;12.044;2024-01-27T08:12:06;101664.66;;;9.42;100.00
19797;BME280;10058;57.654;12.044;2024-01-27T08:14:32;101666.03;;;9.53;100.00
19797;BME280;10058;57.654;12.044;2024-01-27T08:16:58;101666.19;;;9.56;100.00
19797;BME280;10058;57.654;12.044;2024-01-27T08:19:24;101680.84;;;9.50;100.00
19797;BME280;10058;57.654;12.044;2024-01-27T08:21:49;101683.69;;;9.54;100.00
19797;BME280;10058;57.654;12.044;2024-01-27T08:24:14;101680.28;;;9.76;100.00
19797;BME280;10058;57.654;12.044;2024-01-27T08:26:39;101694.41;;;9.76;100.00
19797;BME280;10058;57.654;12.044;2024-01-27T08:29:05;101701.63;;;9.81;100.00
19797;BME280;10058;57.654;12.044;2024-01-27T08:31:30;101701.41;;;9.95;100.00
19797;BME280;10058;57.654;12.044;2024-01-27T08:33:55;101704.09;;;9.58;100.00
19797;BME280;10058;57.654;12.044;2024-01-27T08:36:20;101698.09;;;9.99;100.00
19797;BME280;10058;57.654;12.044;2024-01-27T08:38:46;101695.66;;;10.04;100.00
19797;BME280;10058;57.654;12.044;2024-01-27T08:41:11;101699.88;;;10.00;100.00
19797;BME280;10058;57.654;12.044;2024-01-27T08:43:36;101699.66;;;10.15;100.00
19797;BME280;10058;57.654;12.044;2024-01-27T08:46:02;101703.28;;;9.98;100.00
19797;BME280;10058;57.654;12.044;2024-01-27T08:48:27;101706.75;;;10.16;100.00
19797;BME280;10058;57.654;12.044;2024-01-27T08:50:52;101709.13;;;10.29;100.00
19797;BME280;10058;57.654;12.044;2024-01-27T08:53:18;101707.44;;;10.31;100.00
19797;BME280;10058;57.654;12.044;2024-01-27T08:55:43;101704.25;;;10.38;100.00
19797;BME280;10058;57.654;12.044;2024-01-27T08:58:08;101700.34;;;10.30;100.00
19797;BME280;10058;57.654;12.044;2024-01-27T09:00:33;101708.28;;;10.11;100.00
19797;BME280;10058;57.654;12.044;2024-01-27T09:02:58;101711.47;;;10.23;100.00
19797;BME280;10058;57.654;12.044;2024-01-27T09:05:23;101707.44;;;9.93;100.00
19797;BME280;10058;57.654;12.044;2024-01-27T09:07:49;101709.66;;;10.22;100.00
19797;BME280;10058;57.654;12.044;2024-01-27T09:10:14;101703.84;;;10.29;100.00
19797;BME280;10058;57.654;12.044;2024-01-27T09:12:40;101714.41;;;10.29;100.00
19797;BME280;10058;57.654;12.044;2024-01-27T09:15:06;101713.38;;;10.46;100.00
19797;BME280;10058;57.654;12.044;2024-01-27T09:17:32;101710.44;;;10.39;100.00
19797;BME280;10058;57.654;12.044;2024-01-27T09:19:57;101718.09;;;10.13;100.00
19797;BME280;10058;57.654;12.044;2024-01-27T09:22:22;101720.38;;;10.25;100.00
19797;BME280;10058;57.654;12.044;2024-01-27T09:24:48;101723.44;;;10.34;100.00
19797;BME280;10058;57.654;12.044;2024-01-27T09:27:13;101732.34;;;10.36;100.00
19797;BME280;10058;57.654;12.044;2024-01-27T09:29:38;101739.16;;;10.31;100.00
19797;BME280;10058;57.654;12.044;2024-01-27T09:32:04;101727.97;;;10.37;100.00
19797;BME280;10058;57.654;12.044;2024-01-27T09:34:29;101734.00;;;10.34;100.00
19797;BME280;10058;57.654;12.044;2024-01-27T09:36:54;101731.44;;;10.17;100.00
19797;BME280;10058;57.654;12.044;2024-01-27T09:39:19;101737.91;;;10.04;100.00
19797;BME280;10058;57.654;12.044;2024-01-27T09:41:45;101731.09;;;10.28;100.00
19797;BME280;10058;57.654;12.044;2024-01-27T09:44:10;101725.56;;;10.43;100.00
19797;BME280;10058;57.654;12.044;2024-01-27T09:46:36;101735.69;;;10.32;100.00
19797;BME280;10058;57.654;12.044;2024-01-27T09:49:03;101737.22;;;10.27;100.00
19797;BME280;10058;57.654;12.044;2024-01-27T09:51:30;101739.72;;;10.24;100.00
19797;BME280;10058;57.654;12.044;2024-01-27T09:53:55;101747.06;;;10.51;100.00
19797;BME280;10058;57.654;12.044;2024-01-27T09:56:21;101754.19;;;10.32;100.00
19797;BME280;10058;57.654;12.044;2024-01-27T09:58:47;101759.16;;;10.45;100.00
19797;BME280;10058;57.654;12.044;2024-01-27T10:01:16;101757.50;;;10.48;100.00
19797;BME280;10058;57.654;12.044;2024-01-27T10:03:41;101757.38;;;10.65;100.00
19797;BME280;10058;57.654;12.044;2024-01-27T10:06:10;101762.50;;;10.41;100.00
19797;BME280;10058;57.654;12.044;2024-01-27T10:08:35;101751.50;;;10.52;100.00
19797;BME280;10058;57.654;12.044;2024-01-27T10:11:04;101747.38;;;10.37;100.00
19797;BME280;10058;57.654;12.044;2024-01-27T10:13:32;101750.25;;;10.43;100.00
19797;BME280;10058;57.654;12.044;2024-01-27T10:16:07;101744.16;;;10.25;100.00
19797;BME280;10058;57.654;12.044;2024-01-27T10:18:33;101750.13;;;10.40;100.00
19797;BME280;10058;57.654;12.044;2024-01-27T10:20:59;101753.50;;;10.36;100.00
19797;BME280;10058;57.654;12.044;2024-01-27T10:23:24;101756.81;;;10.13;100.00
19797;BME280;10058;57.654;12.044;2024-01-27T10:25:49;101750.72;;;10.33;100.00
19797;BME280;10058;57.654;12.044;2024-01-27T10:28:15;101761.88;;;10.08;100.00
19797;BME280;10058;57.654;12.044;2024-01-27T10:30:40;101756.38;;;10.42;100.00
19797;BME280;10058;57.654;12.044;2024-01-27T10:33:08;101766.88;;;10.41;100.00
19797;BME280;10058;57.654;12.044;2024-01-27T10:35:35;101766.69;;;10.56;100.00
19797;BME280;10058;57.654;12.044;2024-01-27T10:38:00;101765.88;;;10.37;100.00
19797;BME280;10058;57.654;12.044;2024-01-27T10:40:26;101774.75;;;10.39;100.00
19797;BME280;10058;57.654;12.044;2024-01-27T10:45:22;101769.50;;;10.60;100.00
19797;BME280;10058;57.654;12.044;2024-01-27T10:47:47;101776.34;;;10.55;100.00
19797;BME280;10058;57.654;12.044;2024-01-27T10:50:14;101771.38;;;10.63;100.00
19797;BME280;10058;57.654;12.044;2024-01-27T10:52:39;101778.34;;;10.41;100.00
19797;BME280;10058;57.654;12.044;2024-01-27T10:55:08;101778.81;;;10.71;100.00
19797;BME280;10058;57.654;12.044;2024-01-27T10:57:34;101785.13;;;10.96;100.00
19797;BME280;10058;57.654;12.044;2024-01-27T11:00:00;101778.78;;;10.92;100.00
19797;BME280;10058;57.654;12.044;2024-01-27T11:02:31;101777.78;;;10.68;100.00
19797;BME280;10058;57.654;12.044;2024-01-27T11:04:57;101783.19;;;10.92;100.00
19797;BME280;10058;57.654;12.044;2024-01-27T11:07:23;101797.31;;;10.71;100.00
19797;BME280;10058;57.654;12.044;2024-01-27T11:09:49;101792.25;;;10.57;100.00
19797;BME280;10058;57.654;12.044;2024-01-27T11:12:16;101789.56;;;10.76;100.00
19797;BME280;10058;57.654;12.044;2024-01-27T11:14:41;101796.84;;;10.61;100.00
19797;BME280;10058;57.654;12.044;2024-01-27T11:17:06;101790.72;;;10.62;100.00
19797;BME280;10058;57.654;12.044;2024-01-27T11:19:32;101792.28;;;10.37;100.00
19797;BME280;10058;57.654;12.044;2024-01-27T11:22:01;101801.44;;;10.45;100.00
19797;BME280;10058;57.654;12.044;2024-01-27T11:24:27;101803.13;;;10.43;100.00
19797;BME280;10058;57.654;12.044;2024-01-27T11:27:02;101806.72;;;10.65;100.00
19797;BME280;10058;57.654;12.044;2024-01-27T11:29:27;101807.28;;;10.58;100.00
19797;BME280;10058;57.654;12.044;2024-01-27T11:31:54;101812.53;;;10.56;100.00
19797;BME280;10058;57.654;12.044;2024-01-27T11:34:20;101812.44;;;10.55;100.00
19797;BME280;10058;57.654;12.044;2024-01-27T11:36:46;101806.16;;;10.72;100.00
19797;BME280;10058;57.654;12.044;2024-01-27T11:39:24;101809.75;;;10.74;100.00
19797;BME280;10058;57.654;12.044;2024-01-27T11:41:50;101805.06;;;10.88;100.00
19797;BME280;10058;57.654;12.044;2024-01-27T11:44:16;101813.25;;;11.14;100.00
19797;BME280;10058;57.654;12.044;2024-01-27T11:46:42;101815.91;;;10.73;100.00
19797;BME280;10058;57.654;12.044;2024-01-27T11:49:09;101811.34;;;10.90;100.00
19797;BME280;10058;57.654;12.044;2024-01-27T11:51:39;101815.72;;;10.89;100.00
19797;BME280;10058;57.654;12.044;2024-01-27T11:54:04;101813.16;;;10.91;100.00
19797;BME280;10058;57.654;12.044;2024-01-27T11:56:29;101808.66;;;10.69;100.00
19797;BME280;10058;57.654;12.044;2024-01-27T11:58:54;101804.34;;;11.12;100.00
19797;BME280;10058;57.654;12.044;2024-01-27T12:01:20;101808.88;;;10.73;100.00
19797;BME280;10058;57.654;12.044;2024-01-27T12:03:45;101804.94;;;11.05;100.00
19797;BME280;10058;57.654;12.044;2024-01-27T12:06:10;101801.50;;;11.29;100.00
19797;BME280;10058;57.654;12.044;2024-01-27T12:08:36;101810.66;;;10.95;100.00
19797;BME280;10058;57.654;12.044;2024-01-27T12:11:02;101828.13;;;10.90;100.00
19797;BME280;10058;57.654;12.044;2024-01-27T12:13:27;101822.03;;;11.13;100.00
19797;BME280;10058;57.654;12.044;2024-01-27T12:15:52;101816.19;;;11.43;100.00
19797;BME280;10058;57.654;12.044;2024-01-27T12:18:18;101817.72;;;11.15;100.00
19797;BME280;10058;57.654;12.044;2024-01-27T12:20:44;101818.03;;;11.02;100.00
19797;BME280;10058;57.654;12.044;2024-01-27T12:23:09;101827.59;;;10.99;100.00
19797;BME280;10058;57.654;12.044;2024-01-27T12:25:35;101827.97;;;10.87;100.00
19797;BME280;10058;57.654;12.044;2024-01-27T12:28:04;101827.13;;;11.09;100.00
19797;BME280;10058;57.654;12.044;2024-01-27T12:30:33;101835.06;;;11.30;100.00
19797;BME280;10058;57.654;12.044;2024-01-27T12:32:59;101839.44;;;11.08;100.00
19797;BME280;10058;57.654;12.044;2024-01-27T12:35:25;101834.22;;;11.31;100.00